createdAt,value
2019-05-20T00:00:58.308Z,12.60
2019-05-20T00:03:28.315Z,12.70
2019-05-20T00:05:58.214Z,12.60
2019-05-20T00:08:28.005Z,12.60
2019-05-20T00:10:57.729Z,12.60
2019-05-20T00:13:27.407Z,12.60
2019-05-20T00:15:57.241Z,12.60
2019-05-20T00:18:27.306Z,12.60
2019-05-20T00:20:57.055Z,12.70
2019-05-20T00:23:26.982Z,12.70
2019-05-20T00:25:56.734Z,12.70
2019-05-20T00:28:26.615Z,12.70
2019-05-20T00:30:56.393Z,12.60
2019-05-20T00:33:26.694Z,12.70
2019-05-20T00:35:56.374Z,12.60
2019-05-20T00:38:26.407Z,12.70
2019-05-20T00:40:56.181Z,12.70
2019-05-20T00:43:26.309Z,12.70
2019-05-20T00:45:56.374Z,12.60
2019-05-20T00:48:26.331Z,12.60
2019-05-20T00:50:56.426Z,12.50
2019-05-20T00:53:26.417Z,12.50
2019-05-20T00:55:56.309Z,12.50
2019-05-20T00:58:26.287Z,12.50
2019-05-20T01:00:56.238Z,12.50
2019-05-20T01:03:26.613Z,12.40
2019-05-20T01:05:56.658Z,12.40
2019-05-20T01:08:29.392Z,12.40
2019-05-20T01:10:59.503Z,12.40
2019-05-20T01:13:29.659Z,12.40
2019-05-20T01:15:59.556Z,12.40
2019-05-20T01:18:29.278Z,12.40
2019-05-20T01:21:00.678Z,12.30
2019-05-20T01:23:30.602Z,12.40
2019-05-20T01:26:00.341Z,12.40
2019-05-20T01:28:30.262Z,12.40
2019-05-20T01:31:00.027Z,12.30
2019-05-20T01:33:30.006Z,12.30
2019-05-20T01:36:01.164Z,12.30
2019-05-20T01:38:33.867Z,12.20
2019-05-20T01:41:03.957Z,12.30
2019-05-20T01:43:33.954Z,12.30
2019-05-20T01:46:03.842Z,12.30
2019-05-20T01:48:33.614Z,12.30
2019-05-20T01:51:04.287Z,12.30
2019-05-20T01:53:34.285Z,12.30
2019-05-20T01:56:04.034Z,12.30
2019-05-20T01:58:33.833Z,12.20
2019-05-20T02:01:03.612Z,12.30
2019-05-20T02:03:33.611Z,12.30
2019-05-20T02:06:03.453Z,12.20
2019-05-20T02:08:33.777Z,12.20
2019-05-20T02:11:03.604Z,12.20
2019-05-20T02:13:50.894Z,12.20
2019-05-20T02:16:21.158Z,12.30
2019-05-20T02:18:50.876Z,12.30
2019-05-20T02:21:20.790Z,12.30
2019-05-20T02:23:51.038Z,12.40
2019-05-20T02:26:24.226Z,12.40
2019-05-20T02:28:53.990Z,12.50
2019-05-20T02:31:24.016Z,12.50
2019-05-20T02:33:53.814Z,12.50
2019-05-20T02:36:23.655Z,12.50
2019-05-20T02:38:53.481Z,12.40
2019-05-20T02:41:23.330Z,12.40
2019-05-20T02:43:53.190Z,12.30
2019-05-20T02:46:23.155Z,12.30
2019-05-20T02:48:56.205Z,12.20
2019-05-20T02:51:56.185Z,12.40
2019-05-20T02:54:26.333Z,12.30
2019-05-20T02:56:56.194Z,12.40
2019-05-20T02:59:26.247Z,12.30
2019-05-20T03:01:56.384Z,12.30
2019-05-20T03:04:26.115Z,12.30
2019-05-20T03:06:56.236Z,12.40
2019-05-20T03:09:27.102Z,12.30
2019-05-20T03:11:56.877Z,12.30
2019-05-20T03:14:26.867Z,12.30
2019-05-20T03:16:56.625Z,12.30
2019-05-20T03:19:26.402Z,12.40
2019-05-20T03:21:56.167Z,12.30
2019-05-20T03:24:25.865Z,12.30
2019-05-20T03:26:55.970Z,12.30
2019-05-20T03:29:26.129Z,12.30
2019-05-20T03:31:56.187Z,12.40
2019-05-20T03:34:45.684Z,12.40
2019-05-20T03:36:57.826Z,12.30
2019-05-20T03:39:27.607Z,12.30
2019-05-20T03:41:57.623Z,12.30
2019-05-20T03:44:27.392Z,12.40
2019-05-20T03:46:57.130Z,12.30
2019-05-20T03:49:27.003Z,12.30
2019-05-20T03:51:57.025Z,12.20
2019-05-20T03:54:26.759Z,12.20
2019-05-20T03:56:56.600Z,12.30
2019-05-20T03:59:26.340Z,12.20
2019-05-20T04:01:56.368Z,12.20
2019-05-20T04:04:26.124Z,12.20
2019-05-20T04:06:56.039Z,12.20
2019-05-20T04:09:25.805Z,12.20
2019-05-20T04:11:55.709Z,12.20
2019-05-20T04:14:25.406Z,12.30
2019-05-20T04:16:55.979Z,12.30
2019-05-20T04:19:25.760Z,12.20
2019-05-20T04:21:56.373Z,12.30
2019-05-20T04:24:26.282Z,12.20
2019-05-20T04:26:59.852Z,12.20
2019-05-20T04:29:29.809Z,12.20
2019-05-20T04:31:59.820Z,12.20
2019-05-20T04:34:29.505Z,12.20
2019-05-20T04:36:59.223Z,12.20
2019-05-20T04:39:29.176Z,12.20
2019-05-20T04:41:59.023Z,12.30
2019-05-20T04:44:28.863Z,12.30
2019-05-20T04:46:59.180Z,12.30
2019-05-20T04:49:28.940Z,12.30
2019-05-20T04:51:58.881Z,12.30
2019-05-20T04:54:28.626Z,12.30
2019-05-20T04:56:58.714Z,12.40
2019-05-20T04:59:28.987Z,12.40
2019-05-20T05:01:58.780Z,12.40
2019-05-20T05:04:28.709Z,12.40
2019-05-20T05:06:58.578Z,12.50
2019-05-20T05:09:28.637Z,12.50
2019-05-20T05:11:58.386Z,12.50
2019-05-20T05:14:28.258Z,12.50
2019-05-20T05:16:58.012Z,12.50
2019-05-20T05:19:28.184Z,12.60
2019-05-20T05:21:57.944Z,12.50
2019-05-20T05:24:27.719Z,12.50
2019-05-20T05:26:57.827Z,12.50
2019-05-20T05:29:27.755Z,12.60
2019-05-20T05:31:57.592Z,12.50
2019-05-20T05:34:28.009Z,12.60
2019-05-20T05:36:57.794Z,12.60
2019-05-20T05:39:28.146Z,12.60
2019-05-20T05:41:57.830Z,12.50
2019-05-20T05:44:27.821Z,12.60
2019-05-20T05:46:57.648Z,12.60
2019-05-20T05:49:27.314Z,12.60
2019-05-20T05:51:57.589Z,12.60
2019-05-20T05:54:27.330Z,12.70
2019-05-20T05:56:57.363Z,12.70
2019-05-20T05:59:27.330Z,12.70
2019-05-20T06:01:57.050Z,12.70
2019-05-20T06:04:26.975Z,12.70
2019-05-20T06:06:56.980Z,12.70
2019-05-20T06:09:26.922Z,12.70
2019-05-20T06:11:56.889Z,12.70
2019-05-20T06:14:26.645Z,12.70
2019-05-20T06:16:56.425Z,12.70
2019-05-20T06:19:26.115Z,12.70
2019-05-20T06:21:55.838Z,12.80
2019-05-20T06:24:25.621Z,12.80
2019-05-20T06:26:55.447Z,12.80
2019-05-20T06:29:25.144Z,12.90
2019-05-20T06:31:54.838Z,12.90
2019-05-20T06:34:24.865Z,12.90
2019-05-20T06:36:56.986Z,13.00
2019-05-20T06:39:27.178Z,13.10
2019-05-20T06:41:56.976Z,13.10
2019-05-20T06:44:26.855Z,13.10
2019-05-20T06:46:56.574Z,13.10
2019-05-20T06:49:26.322Z,13.20
2019-05-20T06:51:56.020Z,13.20
2019-05-20T06:54:25.952Z,13.10
2019-05-20T06:56:55.957Z,13.20
2019-05-20T06:59:26.028Z,13.20
2019-05-20T07:01:56.028Z,13.20
2019-05-20T07:04:25.841Z,13.30
2019-05-20T07:06:56.298Z,13.30
2019-05-20T07:09:26.082Z,13.30
2019-05-20T07:11:56.374Z,13.40
2019-05-20T07:14:26.161Z,13.50
2019-05-20T07:16:56.223Z,13.50
2019-05-20T07:19:25.970Z,13.60
2019-05-20T07:21:56.039Z,13.60
2019-05-20T07:24:25.847Z,13.60
2019-05-20T07:26:55.886Z,13.50
2019-05-20T07:29:25.637Z,13.50
2019-05-20T07:31:55.329Z,13.50
2019-05-20T07:34:25.000Z,13.60
2019-05-20T07:37:03.350Z,13.50
2019-05-20T07:39:26.352Z,13.50
2019-05-20T07:41:56.435Z,13.50
2019-05-20T07:44:26.150Z,13.60
2019-05-20T07:46:55.980Z,13.50
2019-05-20T07:49:26.038Z,13.60
2019-05-20T07:51:56.698Z,13.50
2019-05-20T07:54:27.566Z,13.50
2019-05-20T07:57:01.884Z,13.50
2019-05-20T07:59:33.330Z,13.50
2019-05-20T08:02:03.140Z,13.50
2019-05-20T08:04:32.976Z,13.60
2019-05-20T08:07:26.136Z,13.60
2019-05-20T08:09:37.618Z,13.60
2019-05-20T08:12:06.399Z,13.60
2019-05-20T08:14:36.236Z,13.60
2019-05-20T08:17:06.283Z,13.60
2019-05-20T08:19:36.128Z,13.60
2019-05-20T08:22:06.039Z,13.60
2019-05-20T08:24:35.878Z,13.60
2019-05-20T08:27:05.755Z,13.60
2019-05-20T08:29:35.559Z,13.70
2019-05-20T08:32:05.428Z,13.70
2019-05-20T08:34:35.367Z,13.60
2019-05-20T08:37:05.274Z,13.70
2019-05-20T08:39:34.974Z,13.80
2019-05-20T08:42:04.827Z,14.00
2019-05-20T08:44:35.089Z,13.90
2019-05-20T08:47:05.122Z,13.90
2019-05-20T08:49:35.037Z,13.80
2019-05-20T08:52:04.941Z,13.80
2019-05-20T08:54:34.615Z,13.80
2019-05-20T08:57:04.523Z,13.80
2019-05-20T08:59:34.428Z,13.80
2019-05-20T09:02:04.350Z,13.80
2019-05-20T09:04:34.390Z,13.90
2019-05-20T09:07:04.181Z,13.90
2019-05-20T09:09:33.919Z,13.90
2019-05-20T09:12:04.356Z,13.90
2019-05-20T09:14:34.043Z,13.90
2019-05-20T09:17:03.743Z,13.90
2019-05-20T09:19:33.438Z,13.90
2019-05-20T09:22:03.143Z,14.00
2019-05-20T09:24:33.141Z,13.90
2019-05-20T09:27:03.186Z,14.00
2019-05-20T09:29:33.123Z,14.00
2019-05-20T09:32:03.312Z,14.00
2019-05-20T09:34:33.206Z,13.90
2019-05-20T09:37:03.113Z,13.90
2019-05-20T09:39:32.805Z,14.00
2019-05-20T09:42:02.507Z,14.00
2019-05-20T09:44:32.462Z,14.10
2019-05-20T09:47:02.294Z,14.10
2019-05-20T09:49:32.069Z,14.00
2019-05-20T09:52:02.128Z,14.00
2019-05-20T09:54:31.879Z,14.10
2019-05-20T09:57:01.617Z,14.10
2019-05-20T09:59:42.663Z,14.10
2019-05-20T10:02:03.016Z,14.00
2019-05-20T10:04:33.018Z,14.00
2019-05-20T10:07:02.806Z,14.00
2019-05-20T10:09:32.663Z,14.00
2019-05-20T10:12:02.400Z,14.10
2019-05-20T10:14:32.206Z,14.10
2019-05-20T10:17:02.579Z,14.20
2019-05-20T10:19:32.342Z,14.10
2019-05-20T10:22:02.462Z,14.10
2019-05-20T10:24:32.149Z,14.10
2019-05-20T10:27:01.821Z,14.10
2019-05-20T10:29:31.789Z,14.10
2019-05-20T10:32:01.470Z,14.10
2019-05-20T10:34:31.730Z,14.20
2019-05-20T10:37:01.656Z,14.20
2019-05-20T10:39:31.368Z,14.10
2019-05-20T10:42:01.723Z,14.10
2019-05-20T10:44:31.476Z,14.10
2019-05-20T10:47:01.153Z,14.10
2019-05-20T10:49:31.058Z,14.10
2019-05-20T10:52:00.919Z,14.20
2019-05-20T10:54:30.623Z,14.20
2019-05-20T10:57:00.603Z,14.30
2019-05-20T10:59:30.395Z,14.40
2019-05-20T11:02:00.364Z,14.40
2019-05-20T11:04:30.311Z,14.30
2019-05-20T11:07:00.066Z,14.30
2019-05-20T11:09:29.781Z,14.20
2019-05-20T11:11:59.783Z,14.10
2019-05-20T11:14:30.006Z,14.10
2019-05-20T11:16:59.746Z,14.00
2019-05-20T11:19:29.785Z,13.90
2019-05-20T11:21:59.693Z,13.90
2019-05-20T11:24:29.392Z,13.90
2019-05-20T11:26:59.150Z,13.90
2019-05-20T11:29:28.906Z,13.80
2019-05-20T11:31:58.862Z,13.90
2019-05-20T11:34:28.755Z,13.90
2019-05-20T11:36:58.759Z,13.90
2019-05-20T11:39:33.145Z,13.90
2019-05-20T11:41:59.910Z,13.90
2019-05-20T11:44:29.698Z,13.90
2019-05-20T11:46:59.463Z,13.90
2019-05-20T11:49:29.536Z,13.90
2019-05-20T11:51:59.435Z,13.90
2019-05-20T11:54:29.174Z,13.90
2019-05-20T11:56:58.938Z,13.80
2019-05-20T11:59:28.732Z,13.90
2019-05-20T12:01:58.537Z,13.90
2019-05-20T12:04:28.670Z,14.00
2019-05-20T12:06:58.675Z,14.00
2019-05-20T12:09:28.484Z,13.90
2019-05-20T12:11:58.403Z,13.90
2019-05-20T12:14:28.135Z,13.90
2019-05-20T12:16:57.819Z,13.80
2019-05-20T12:19:27.844Z,13.80
2019-05-20T12:21:57.531Z,13.70
2019-05-20T12:24:27.506Z,13.70
2019-05-20T12:26:57.197Z,13.80
2019-05-20T12:29:27.179Z,13.80
2019-05-20T12:31:56.881Z,13.80
2019-05-20T12:34:26.598Z,13.70
2019-05-20T12:36:56.308Z,13.80
2019-05-20T12:39:26.324Z,13.70
2019-05-20T12:41:56.147Z,13.80
2019-05-20T12:44:25.846Z,13.80
2019-05-20T12:46:55.551Z,13.90
2019-05-20T12:49:25.407Z,13.90
2019-05-20T12:51:55.419Z,13.90
2019-05-20T12:54:25.120Z,13.90
2019-05-20T12:56:54.874Z,13.90
2019-05-20T12:59:24.664Z,13.90
2019-05-20T13:01:54.365Z,14.00
2019-05-20T13:04:24.399Z,13.90
2019-05-20T13:06:54.078Z,13.80
2019-05-20T13:09:23.803Z,13.90
2019-05-20T13:11:53.757Z,13.90
2019-05-20T13:14:23.535Z,13.90
2019-05-20T13:16:53.219Z,13.90
2019-05-20T13:19:23.171Z,14.00
2019-05-20T13:21:53.132Z,14.00
2019-05-20T13:24:22.896Z,14.00
2019-05-20T13:26:52.620Z,14.10
2019-05-20T13:29:22.415Z,14.10
2019-05-20T13:31:52.202Z,14.20
2019-05-20T13:34:22.155Z,14.30
2019-05-20T13:36:52.190Z,14.30
2019-05-20T13:39:21.976Z,14.40
2019-05-20T13:41:52.137Z,14.40
2019-05-20T13:44:22.102Z,14.40
2019-05-20T13:46:51.897Z,14.50
2019-05-20T13:49:21.902Z,14.50
2019-05-20T13:51:51.998Z,14.60
2019-05-20T13:54:21.783Z,14.60
2019-05-20T13:56:51.514Z,14.70
2019-05-20T13:59:21.250Z,14.70
2019-05-20T14:01:51.407Z,14.70
2019-05-20T14:04:21.539Z,14.70
2019-05-20T14:06:51.644Z,14.70
2019-05-20T14:09:21.389Z,14.60
2019-05-20T14:11:51.418Z,14.60
2019-05-20T14:14:21.109Z,14.60
2019-05-20T14:16:50.827Z,14.70
2019-05-20T14:19:22.660Z,14.70
2019-05-20T14:21:52.518Z,14.70
2019-05-20T14:24:22.282Z,14.60
2019-05-20T14:26:52.481Z,14.70
2019-05-20T14:29:22.311Z,14.80
2019-05-20T14:31:52.017Z,14.70
2019-05-20T14:34:21.707Z,14.80
2019-05-20T14:36:53.053Z,14.90
2019-05-20T14:39:23.234Z,14.90
2019-05-20T14:41:52.971Z,14.90
2019-05-20T14:44:23.044Z,15.00
2019-05-20T14:46:52.765Z,15.00
2019-05-20T14:49:22.487Z,15.00
2019-05-20T14:51:52.713Z,15.00
2019-05-20T14:54:23.018Z,15.00
2019-05-20T14:56:53.021Z,14.90
2019-05-20T14:59:22.766Z,14.80
2019-05-20T15:01:52.859Z,14.90
2019-05-20T15:04:22.724Z,14.80
2019-05-20T15:06:52.603Z,14.90
2019-05-20T15:09:22.299Z,14.80
2019-05-20T15:11:52.030Z,14.90
2019-05-20T15:14:21.779Z,15.00
2019-05-20T15:16:51.820Z,14.90
2019-05-20T15:19:21.586Z,14.90
2019-05-20T15:21:51.691Z,14.90
2019-05-20T15:24:21.624Z,15.00
2019-05-20T15:26:51.602Z,15.10
2019-05-20T15:29:28.230Z,15.00
2019-05-20T15:31:53.538Z,15.00
2019-05-20T15:34:23.335Z,15.00
2019-05-20T15:36:53.049Z,15.10
2019-05-20T15:39:22.902Z,15.20
2019-05-20T15:41:53.215Z,15.20
2019-05-20T15:44:23.094Z,15.20
2019-05-20T15:46:53.115Z,15.20
2019-05-20T15:49:22.803Z,15.30
2019-05-20T15:51:52.923Z,15.30
2019-05-20T15:54:22.730Z,15.30
2019-05-20T15:56:52.477Z,15.30
2019-05-20T15:59:25.506Z,15.40
2019-05-20T16:01:55.825Z,15.30
2019-05-20T16:04:25.819Z,15.40
2019-05-20T16:06:55.663Z,15.40
2019-05-20T16:09:25.493Z,15.40
2019-05-20T16:11:55.534Z,15.30
2019-05-20T16:14:25.208Z,15.30
2019-05-20T16:16:55.099Z,15.40
2019-05-20T16:19:25.111Z,15.20
2019-05-20T16:21:55.483Z,15.20
2019-05-20T16:24:25.302Z,15.20
2019-05-20T16:26:55.361Z,15.10
2019-05-20T16:29:25.310Z,15.00
2019-05-20T16:31:55.288Z,14.90
2019-05-20T16:34:25.032Z,14.80
2019-05-20T16:36:55.197Z,14.80
2019-05-20T16:39:25.195Z,14.80
2019-05-20T16:41:55.188Z,14.90
2019-05-20T16:44:24.959Z,14.70
2019-05-20T16:46:55.056Z,14.70
2019-05-20T16:49:25.067Z,14.70
2019-05-20T16:51:55.047Z,14.80
2019-05-20T16:54:24.815Z,14.80
2019-05-20T16:56:54.804Z,14.70
2019-05-20T16:59:24.842Z,14.80
2019-05-20T17:01:54.575Z,14.70
2019-05-20T17:04:24.349Z,14.70
2019-05-20T17:06:54.095Z,14.70
2019-05-20T17:09:23.806Z,14.70
2019-05-20T17:11:53.607Z,14.60
2019-05-20T17:14:23.409Z,14.60
2019-05-20T17:16:53.157Z,14.60
2019-05-20T17:19:23.239Z,14.70
2019-05-20T17:21:53.275Z,14.70
2019-05-20T17:24:23.178Z,14.60
2019-05-20T17:26:52.938Z,14.50
2019-05-20T17:29:22.686Z,14.50
2019-05-20T17:31:52.418Z,14.50
2019-05-20T17:34:22.227Z,14.50
2019-05-20T17:36:52.268Z,14.50
2019-05-20T17:39:22.127Z,14.50
2019-05-20T17:41:51.906Z,14.60
2019-05-20T17:44:21.839Z,14.60
2019-05-20T17:46:51.599Z,14.60
2019-05-20T17:49:21.713Z,14.60
2019-05-20T17:51:51.527Z,14.50
2019-05-20T17:54:54.098Z,14.50
2019-05-20T17:57:54.942Z,14.50
2019-05-20T18:00:25.279Z,14.60
2019-05-20T18:02:55.159Z,14.50
2019-05-20T18:05:25.733Z,14.60
2019-05-20T18:07:55.535Z,14.60
2019-05-20T18:10:25.339Z,14.30
2019-05-20T18:12:55.338Z,14.30
2019-05-20T18:15:25.534Z,14.20
2019-05-20T18:17:55.870Z,14.20
2019-05-20T18:20:25.709Z,14.20
2019-05-20T18:22:55.579Z,14.30
2019-05-20T18:25:25.534Z,14.20
2019-05-20T18:27:55.556Z,14.10
2019-05-20T18:30:25.407Z,14.30
2019-05-20T18:32:55.177Z,14.30
2019-05-20T18:35:25.245Z,14.20
2019-05-20T18:37:55.348Z,14.20
2019-05-20T18:40:25.386Z,14.10
2019-05-20T18:42:55.182Z,14.10
2019-05-20T18:45:24.950Z,14.10
2019-05-20T18:47:55.013Z,14.10
2019-05-20T18:50:25.065Z,14.10
2019-05-20T18:52:54.822Z,14.20
2019-05-20T18:55:24.567Z,14.30
2019-05-20T18:57:54.373Z,14.20
2019-05-20T19:00:24.982Z,14.10
2019-05-20T19:02:54.661Z,14.10
2019-05-20T19:05:24.775Z,14.10
2019-05-20T19:07:54.714Z,14.10
2019-05-20T19:10:24.718Z,14.10
2019-05-20T19:12:54.674Z,14.00
2019-05-20T19:15:24.721Z,14.00
2019-05-20T19:17:54.769Z,14.00
2019-05-20T19:20:24.655Z,14.00
2019-05-20T19:22:54.797Z,14.00
2019-05-20T19:25:36.937Z,14.00
2019-05-20T19:27:56.214Z,14.00
2019-05-20T19:30:26.315Z,14.00
2019-05-20T19:32:56.282Z,14.00
2019-05-20T19:35:26.323Z,14.00
2019-05-20T19:37:56.176Z,13.90
2019-05-20T19:40:25.927Z,14.00
2019-05-20T19:42:55.703Z,13.90
2019-05-20T19:45:25.781Z,13.90
2019-05-20T19:47:55.731Z,13.90
2019-05-20T19:50:25.529Z,13.90
2019-05-20T19:52:55.669Z,13.80
2019-05-20T19:55:25.509Z,13.80
2019-05-20T19:57:55.381Z,13.70
2019-05-20T20:00:26.625Z,13.80
2019-05-20T20:02:56.544Z,13.80
2019-05-20T20:05:26.296Z,13.80
2019-05-20T20:07:56.883Z,13.80
2019-05-20T20:10:27.182Z,13.90
2019-05-20T20:12:58.272Z,13.80
2019-05-20T20:15:28.426Z,13.80
2019-05-20T20:17:58.378Z,13.90
2019-05-20T20:20:29.336Z,13.90
2019-05-20T20:22:59.217Z,13.90
2019-05-20T20:25:29.153Z,13.90
2019-05-20T20:28:01.139Z,13.90
2019-05-20T20:30:31.061Z,13.80
2019-05-20T20:33:02.034Z,13.80
2019-05-20T20:35:38.078Z,13.80
2019-05-20T20:38:05.612Z,13.70
2019-05-20T20:40:35.579Z,13.70
2019-05-20T20:43:05.559Z,13.60
2019-05-20T20:45:35.331Z,13.70
2019-05-20T20:48:07.248Z,13.70
2019-05-20T20:50:37.204Z,13.70
2019-05-20T20:53:07.344Z,13.60
2019-05-20T20:55:37.505Z,13.40
2019-05-20T20:58:07.649Z,13.30
2019-05-20T21:00:37.466Z,13.40
2019-05-20T21:03:07.215Z,13.40
2019-05-20T21:05:37.342Z,13.50
2019-05-20T21:08:07.499Z,13.40
2019-05-20T21:10:37.627Z,13.30
2019-05-20T21:13:07.454Z,13.30
2019-05-20T21:15:37.430Z,13.30
2019-05-20T21:18:07.618Z,13.40
2019-05-20T21:20:37.794Z,13.40
2019-05-20T21:23:07.621Z,13.40
2019-05-20T21:25:37.443Z,13.30
2019-05-20T21:28:07.506Z,13.30
2019-05-20T21:30:37.511Z,13.30
2019-05-20T21:33:09.502Z,13.20
2019-05-20T21:35:39.252Z,13.10
2019-05-20T21:38:09.334Z,13.20
2019-05-20T21:40:39.099Z,13.20
2019-05-20T21:43:08.920Z,13.20
2019-05-20T21:45:38.713Z,13.20
2019-05-20T21:48:08.792Z,13.20
2019-05-20T21:50:38.560Z,13.10
2019-05-20T21:53:08.707Z,13.20
2019-05-20T21:55:38.421Z,13.20
2019-05-20T21:58:08.310Z,13.20
2019-05-20T22:00:46.032Z,13.20
2019-05-20T22:03:24.108Z,13.10
2019-05-20T22:05:47.506Z,13.00
2019-05-20T22:08:17.446Z,13.00
2019-05-20T22:10:47.686Z,13.00
2019-05-20T22:13:17.559Z,13.10
2019-05-20T22:15:47.332Z,13.10
2019-05-20T22:18:17.667Z,13.10
2019-05-20T22:20:47.481Z,13.00
2019-05-20T22:23:28.873Z,13.00
2019-05-20T22:25:58.712Z,13.00
2019-05-20T22:28:29.037Z,12.90
2019-05-20T22:30:58.719Z,12.80
2019-05-20T22:33:41.000Z,12.80
2019-05-20T22:36:00.658Z,12.80
2019-05-20T22:38:30.479Z,12.80
2019-05-20T22:41:00.382Z,12.80
2019-05-20T22:43:30.102Z,12.70
2019-05-20T22:46:00.010Z,12.70
2019-05-20T22:48:30.418Z,12.70
2019-05-20T22:51:00.226Z,12.70
2019-05-20T22:53:30.229Z,12.70
2019-05-20T22:56:00.170Z,12.70
2019-05-20T22:58:29.903Z,12.60
2019-05-20T23:00:59.919Z,12.70
2019-05-20T23:03:30.039Z,12.70
2019-05-20T23:06:00.127Z,12.60
2019-05-20T23:08:30.021Z,12.50
2019-05-20T23:10:59.840Z,12.50
2019-05-20T23:13:29.962Z,12.40
2019-05-20T23:15:59.689Z,12.40
2019-05-20T23:18:29.580Z,12.30
2019-05-20T23:20:59.732Z,12.20
2019-05-20T23:23:29.584Z,12.30
2019-05-20T23:25:59.382Z,12.30
2019-05-20T23:28:29.106Z,12.30
2019-05-20T23:30:59.078Z,12.30
2019-05-20T23:33:28.811Z,12.40
2019-05-20T23:35:58.709Z,12.40
2019-05-20T23:38:28.394Z,12.40
2019-05-20T23:40:58.319Z,12.50
2019-05-20T23:43:28.317Z,12.40
2019-05-20T23:45:58.043Z,12.30
2019-05-20T23:48:27.713Z,12.30
2019-05-20T23:50:57.505Z,12.20
2019-05-20T23:53:27.222Z,12.20
2019-05-20T23:55:56.998Z,12.20
2019-05-20T23:58:26.767Z,12.20
